Time;durP1;ratioP1;P1;durP2;ratioP2;P2;SDS_P1;SDS_P2;PMS_P1;PMS_P2;Temp;Humidity;BMP_temperature;BMP_pressure;BME280_temperature;BME280_humidity;BME280_pressure;Samples;Min_cycle;Max_cycle;Signal;HPM_P1;HPM_P2
2023/05/24 00:00:42;;;;;;;3.65;0.22;;;10.40;99.90;;;9.10;97.20;101287.03;5031347;28;20039;-74
2023/05/24 00:03:08;;;;;;;0.60;0.43;;;10.40;99.90;;;9.04;97.40;101284.59;5057766;28;20404;-74
2023/05/24 00:05:36;;;;;;;7.30;0.85;;;10.30;99.90;;;8.98;98.00;101287.41;5058062;28;20040;-74
2023/05/24 00:08:03;;;;;;;0.68;0.45;;;10.20;99.90;;;8.87;98.04;101287.72;5053817;28;20086;-74
2023/05/24 00:10:29;;;;;;;0.98;0.43;;;10.20;99.90;;;8.83;97.66;101291.34;5069738;28;20115;-74
2023/05/24 00:12:55;;;;;;;0.03;0.03;;;10.10;99.90;;;8.78;98.65;101288.00;5049971;28;20443;-74
2023/05/24 00:15:21;;;;;;;0.52;0.10;;;10.10;99.90;;;8.71;98.85;101287.34;5056184;28;20045;-74
2023/05/24 00:17:48;;;;;;;0.20;0.17;;;10.00;99.90;;;8.67;99.08;101292.72;5056758;28;20024;-74
2023/05/24 00:20:13;;;;;;;1.70;0.70;;;9.90;99.90;;;8.64;99.20;101293.69;5056435;28;20036;-74
2023/05/24 00:22:40;;;;;;;1.35;0.20;;;9.90;99.90;;;8.59;98.77;101291.16;5056221;28;20112;-74
2023/05/24 00:25:07;;;;;;;5.32;1.08;;;9.80;99.90;;;8.52;98.95;101287.03;5056101;28;20047;-74
2023/05/24 00:27:35;;;;;;;1.85;0.52;;;9.80;99.90;;;8.45;99.34;101288.09;5044741;28;20035;-74
2023/05/24 00:30:02;;;;;;;1.90;0.28;;;9.70;99.90;;;8.37;99.90;101284.81;5053205;28;20044;-74
2023/05/24 00:32:28;;;;;;;0.40;0.30;;;9.70;99.90;;;8.34;100.00;101283.13;5054622;28;20037;-74
2023/05/24 00:34:54;;;;;;;1.08;0.40;;;9.60;99.90;;;8.32;100.00;101290.19;5048212;28;20448;-75
2023/05/24 00:37:20;;;;;;;0.20;0.20;;;9.60;99.90;;;8.26;100.00;101282.47;5057659;28;20112;-75
2023/05/24 00:39:46;;;;;;;0.77;0.15;;;9.60;99.90;;;8.24;100.00;101286.91;5056086;28;20461;-74
2023/05/24 00:42:12;;;;;;;1.77;0.22;;;9.60;99.90;;;8.20;100.00;101293.13;5056662;28;20052;-74
2023/05/24 00:44:38;;;;;;;0.38;0.25;;;9.50;99.90;;;8.19;100.00;101291.44;5054161;28;20105;-75
2023/05/24 00:47:04;;;;;;;0.93;0.30;;;9.50;99.90;;;8.17;100.00;101291.47;5036474;28;20047;-74
2023/05/24 00:49:30;;;;;;;2.45;0.88;;;9.50;99.90;;;8.15;100.00;101289.81;5044346;28;20036;-75
2023/05/24 00:51:56;;;;;;;0.20;0.08;;;9.60;99.90;;;8.09;100.00;101293.44;5057372;28;20040;-74
2023/05/24 00:54:25;;;;;;;0.30;0.20;;;9.40;99.90;;;8.12;100.00;101298.63;5046559;28;20033;-74
2023/05/24 00:56:50;;;;;;;2.10;0.43;;;9.40;99.90;;;8.12;100.00;101296.00;5053499;28;20037;-74
2023/05/24 00:59:16;;;;;;;0.38;0.25;;;9.40;99.90;;;8.11;100.00;101303.91;5060888;28;20043;-75
2023/05/24 01:01:45;;;;;;;4.82;0.20;;;9.40;99.90;;;8.11;100.00;101302.13;5034803;28;20036;-74
2023/05/24 01:04:12;;;;;;;0.75;0.40;;;9.40;99.90;;;8.14;100.00;101301.19;5030151;28;20467;-74
2023/05/24 01:07:00;;;;;;;1.88;0.65;;;9.40;99.90;;;8.16;100.00;101305.50;5049662;28;20116;-74
2023/05/24 01:09:54;;;;;;;0.20;0.10;;;9.40;99.90;;;8.20;100.00;101309.72;5049544;28;20040;-75
2023/05/24 01:12:38;;;;;;;3.70;0.57;;;9.50;99.90;;;8.26;100.00;101311.34;5049478;28;20041;-76
2023/05/24 01:15:32;;;;;;;3.35;0.88;;;9.50;99.90;;;8.31;100.00;101314.69;5056722;28;20048;-76
2023/05/24 01:18:29;;;;;;;2.00;0.63;;;9.60;99.90;;;8.40;100.00;101304.00;5053604;28;20051;-76
2023/05/24 01:21:38;;;;;;;1.17;0.32;;;9.60;99.90;;;8.44;100.00;101309.13;5051348;28;20223;-76
2023/05/24 01:24:41;;;;;;;0.47;0.30;;;9.70;99.90;;;8.49;100.00;101309.84;5041425;28;20039;-76
2023/05/24 01:27:14;;;;;;;1.02;0.30;;;9.70;99.90;;;8.54;100.00;101302.72;5066331;22;20023;-77
2023/05/24 01:29:40;;;;;;;0.95;0.10;;;9.80;99.90;;;8.56;100.00;101306.16;5027144;28;20053;-77
2023/05/24 01:32:07;;;;;;;0.60;0.32;;;9.80;99.90;;;8.58;100.00;101302.59;4983033;28;20061;-77
2023/05/24 01:34:33;;;;;;;1.27;0.20;;;9.80;99.90;;;8.58;100.00;101307.84;4983765;28;20037;-77
2023/05/24 01:36:59;;;;;;;0.93;0.40;;;9.80;99.90;;;8.60;100.00;101308.66;5022126;28;20041;-77
2023/05/24 01:39:28;;;;;;;0.45;0.38;;;9.80;99.90;;;8.61;100.00;101312.13;5036317;28;20428;-77
2023/05/24 01:42:37;;;;;;;1.25;0.15;;;9.80;99.90;;;8.60;100.00;101310.44;5025774;28;20699;-78
2023/05/24 01:45:16;;;;;;;0.68;0.50;;;9.80;99.90;;;8.61;100.00;101314.75;5006249;28;20033;-77
2023/05/24 01:48:10;;;;;;;2.45;0.52;;;9.80;99.90;;;8.57;100.00;101310.50;5023189;28;20060;-77
2023/05/24 01:50:51;;;;;;;1.45;0.30;;;9.80;99.90;;;8.57;99.59;101321.88;5033839;28;20033;-77
2023/05/24 01:53:21;;;;;;;0.98;0.25;;;9.80;99.90;;;8.56;99.71;101320.16;4997061;28;20056;-77
2023/05/24 01:55:50;;;;;;;3.08;0.38;;;9.80;99.90;;;8.56;99.38;101322.78;5012323;28;20068;-77
2023/05/24 01:58:19;;;;;;;2.05;0.05;;;9.80;99.90;;;8.55;99.71;101321.06;4982790;28;20105;-77
2023/05/24 02:00:45;;;;;;;0.20;0.20;;;9.70;99.90;;;8.55;99.40;101325.44;5018635;28;20045;-77
2023/05/24 02:03:14;;;;;;;1.02;0.45;;;9.40;99.90;;;8.54;99.17;101331.59;4998542;28;20086;-77
2023/05/24 02:05:40;;;;;;;2.30;0.30;;;9.80;99.90;;;8.53;99.24;101328.13;5030714;28;20039;-77
2023/05/24 02:08:09;;;;;;;0.10;0.10;;;9.80;99.90;;;8.56;99.71;101330.66;4974918;28;20041;-77
2023/05/24 02:10:38;;;;;;;0.57;0.30;;;9.80;99.90;;;8.59;99.64;101330.53;4999359;28;20046;-77
2023/05/24 02:13:04;;;;;;;1.20;0.50;;;9.80;99.90;;;8.60;99.54;101327.03;5001310;28;20073;-77
2023/05/24 02:15:31;;;;;;;0.10;0.10;;;9.80;99.90;;;8.63;99.76;101329.56;5005368;28;20044;-77
2023/05/24 02:17:57;;;;;;;0.40;0.20;;;9.80;99.90;;;8.63;99.52;101323.44;5013007;28;20060;-78
2023/05/24 02:20:23;;;;;;;0.95;0.85;;;9.80;99.90;;;8.64;100.00;101327.81;5029684;28;20303;-77
2023/05/24 02:22:52;;;;;;;3.22;0.35;;;9.90;99.90;;;8.66;99.66;101318.13;4998284;28;20897;-78
2023/05/24 02:25:18;;;;;;;0.55;0.22;;;9.90;99.90;;;8.69;99.41;101320.66;5018256;28;20046;-77
2023/05/24 02:27:45;;;;;;;0.10;0.10;;;9.90;99.90;;;8.71;99.31;101323.25;5017344;28;20234;-77
2023/05/24 02:30:12;;;;;;;1.85;0.40;;;9.90;99.90;;;8.70;99.45;101322.38;5017123;28;20426;-77
2023/05/24 02:32:43;;;;;;;0.82;0.10;;;9.90;99.90;;;8.70;99.81;101321.50;4987025;28;20108;-78
2023/05/24 02:35:09;;;;;;;0.30;0.30;;;9.90;99.90;;;8.70;99.95;101318.88;4984514;28;20120;-77
2023/05/24 02:37:35;;;;;;;1.83;0.77;;;9.90;99.90;;;8.70;99.73;101317.09;5036795;28;20497;-77
2023/05/24 02:40:00;;;;;;;1.98;0.43;;;9.90;99.90;;;8.69;100.00;101318.03;5042018;28;20148;-77
2023/05/24 02:42:26;;;;;;;1.63;0.60;;;9.90;99.90;;;8.69;99.91;101311.94;5018434;28;20056;-77
2023/05/24 02:44:52;;;;;;;2.63;0.57;;;9.90;99.90;;;8.66;100.00;101319.88;5019336;28;20132;-77
2023/05/24 02:47:18;;;;;;;1.70;0.43;;;9.90;99.90;;;8.63;100.00;101328.69;5007725;28;20044;-76
2023/05/24 02:49:47;;;;;;;0.38;0.13;;;9.90;99.90;;;8.60;100.00;101334.06;5019224;28;20045;-76
2023/05/24 02:52:14;;;;;;;0.43;0.20;;;9.90;99.90;;;8.62;100.00;101334.88;4995596;28;20032;-77
2023/05/24 02:54:40;;;;;;;0.30;0.30;;;9.80;99.90;;;8.63;100.00;101342.69;5001855;28;20033;-76
2023/05/24 02:57:06;;;;;;;0.47;0.25;;;9.90;99.90;;;8.63;100.00;101337.44;5001878;28;20051;-77
2023/05/24 02:59:35;;;;;;;2.22;0.55;;;9.90;99.90;;;8.67;99.35;101345.25;5025505;28;20039;-76
2023/05/24 03:02:01;;;;;;;4.00;0.65;;;9.90;99.90;;;8.69;99.59;101352.16;5004317;28;20033;-77
2023/05/24 03:04:26;;;;;;;1.38;0.52;;;9.90;99.90;;;8.70;99.02;101355.63;5006799;28;20036;-77
2023/05/24 03:06:52;;;;;;;4.65;0.50;;;9.90;99.90;;;8.72;98.99;101348.59;4998528;28;20041;-77
2023/05/24 03:09:18;;;;;;;3.40;0.40;;;9.90;99.90;;;8.73;99.04;101353.78;5037718;28;20053;-77
2023/05/24 03:11:44;;;;;;;1.75;0.45;;;9.90;99.90;;;8.74;98.78;101355.50;4995253;28;20250;-77
2023/05/24 03:14:10;;;;;;;0.38;0.30;;;9.90;99.90;;;8.77;98.70;101363.31;5041945;28;20043;-77
2023/05/24 03:16:36;;;;;;;4.10;1.05;;;10.00;99.90;;;8.80;99.15;101365.84;4982783;28;20099;-77
2023/05/24 03:19:05;;;;;;;4.53;0.95;;;10.00;99.90;;;8.82;98.84;101364.03;4984035;28;20025;-76
2023/05/24 03:21:31;;;;;;;2.75;0.30;;;10.00;99.90;;;8.85;99.31;101367.47;5035889;28;20044;-76
2023/05/24 03:23:57;;;;;;;0.35;0.20;;;10.00;99.90;;;8.87;98.68;101365.66;5006075;28;20374;-77
2023/05/24 03:26:23;;;;;;;0.52;0.22;;;10.10;99.90;;;8.90;99.01;101370.81;5015497;28;20045;-77
2023/05/24 03:28:53;;;;;;;0.35;0.35;;;10.10;99.90;;;8.90;98.62;101368.19;5001083;28;20119;-77
2023/05/24 03:31:23;;;;;;;0.10;0.10;;;10.10;99.90;;;8.94;99.09;101370.69;4989940;28;20106;-77
2023/05/24 03:33:49;;;;;;;0.30;0.30;;;10.10;99.90;;;8.95;99.28;101368.94;5000995;28;20047;-77
2023/05/24 03:36:15;;;;;;;2.47;0.63;;;10.10;99.90;;;8.95;99.33;101364.53;5000805;28;20162;-77
2023/05/24 03:38:40;;;;;;;3.30;0.30;;;10.10;99.90;;;8.96;99.47;101363.63;5025458;28;20033;-77
2023/05/24 03:41:06;;;;;;;0.20;0.20;;;10.30;99.90;;;9.00;99.62;101365.25;5004574;28;20037;-77
2023/05/24 03:43:32;;;;;;;1.33;0.43;;;10.20;99.90;;;9.03;99.51;101364.31;5004584;28;20025;-77
2023/05/24 03:45:58;;;;;;;5.25;0.73;;;10.20;99.90;;;9.09;99.32;101371.97;5034310;28;20111;-77
2023/05/24 03:48:24;;;;;;;0.45;0.40;;;10.30;99.90;;;9.12;99.59;101371.06;5005941;28;20036;-76
2023/05/24 03:50:52;;;;;;;0.70;0.57;;;10.30;99.90;;;9.17;99.13;101372.63;5022336;28;20048;-78
2023/05/24 03:53:19;;;;;;;0.57;0.20;;;10.30;99.90;;;9.20;99.31;101369.03;5021102;28;20098;-77
2023/05/24 03:55:45;;;;;;;1.65;1.02;;;10.40;99.90;;;9.27;98.94;101369.72;5023659;28;20032;-77
2023/05/24 03:58:11;;;;;;;2.30;0.57;;;10.40;99.90;;;9.31;99.05;101374.84;5021017;28;20049;-77
2023/05/24 04:00:39;;;;;;;3.88;1.10;;;10.50;99.90;;;9.33;99.19;101369.50;5028476;28;20041;-77
2023/05/24 04:03:07;;;;;;;2.53;0.60;;;10.50;99.90;;;9.36;98.54;101386.06;5002220;28;20041;-77
2023/05/24 04:05:34;;;;;;;0.65;0.22;;;10.50;99.90;;;9.37;98.83;101384.28;5020512;28;20082;-78
2023/05/24 04:08:00;;;;;;;0.95;0.82;;;10.50;99.90;;;9.37;98.79;101381.66;4969981;28;20045;-77
2023/05/24 04:10:26;;;;;;;1.08;0.45;;;10.50;99.90;;;9.32;99.03;101381.81;5015519;28;20503;-77
2023/05/24 04:12:52;;;;;;;0.75;0.35;;;10.50;99.90;;;9.29;99.44;101383.66;5030512;28;20037;-77
2023/05/24 04:15:18;;;;;;;0.85;0.75;;;10.50;99.90;;;9.32;99.33;101383.56;5040213;28;20095;-77
2023/05/24 04:17:46;;;;;;;0.30;0.30;;;10.50;99.90;;;9.35;99.27;101386.09;4980176;28;20119;-77
2023/05/24 04:20:12;;;;;;;1.35;0.30;;;10.50;99.90;;;9.36;99.55;101393.09;5030555;28;20043;-77
2023/05/24 04:22:39;;;;;;;2.65;0.40;;;10.50;99.90;;;9.36;99.23;101393.94;5018699;28;20037;-77
2023/05/24 04:25:06;;;;;;;0.47;0.30;;;10.60;99.90;;;9.43;99.16;101398.09;4997189;28;20061;-77
2023/05/24 04:27:32;;;;;;;4.22;0.45;;;10.60;99.90;;;9.49;99.15;101402.31;5030596;28;20383;-77
2023/05/24 04:30:02;;;;;;;1.10;0.57;;;10.60;99.90;;;9.50;98.92;101390.88;5022998;28;20072;-78
2023/05/24 04:32:29;;;;;;;0.82;0.40;;;10.70;99.90;;;9.54;99.23;101395.13;5030762;28;20048;-77
2023/05/24 04:34:55;;;;;;;1.20;0.43;;;10.70;99.90;;;9.59;99.29;101392.34;5022979;28;20079;-77
2023/05/24 04:37:21;;;;;;;4.13;0.80;;;10.70;99.90;;;9.60;99.90;101386.19;5015428;28;20029;-77
2023/05/24 04:39:47;;;;;;;1.90;0.52;;;10.80;99.90;;;9.61;100.00;101391.41;5010215;28;20088;-77
2023/05/24 04:42:15;;;;;;;4.15;0.35;;;10.80;99.90;;;9.65;99.71;101398.31;4980892;28;20033;-77
2023/05/24 04:44:43;;;;;;;1.15;0.68;;;10.80;99.90;;;9.64;100.00;101401.81;4994695;28;20021;-77
2023/05/24 04:47:11;;;;;;;0.65;0.28;;;10.80;99.90;;;9.66;100.00;101407.03;5010561;28;20074;-77
2023/05/24 04:49:38;;;;;;;0.77;0.73;;;10.90;99.90;;;9.67;100.00;101414.00;5006281;28;20460;-77
2023/05/24 04:52:05;;;;;;;3.53;1.08;;;10.80;99.90;;;9.63;100.00;101415.00;5019766;28;20037;-77
2023/05/24 04:54:33;;;;;;;5.07;0.75;;;10.90;99.90;;;9.68;100.00;101423.63;4987069;28;20106;-77
2023/05/24 04:56:59;;;;;;;0.57;0.20;;;10.90;99.90;;;9.78;99.88;101418.94;4991985;28;20071;-77
2023/05/24 04:59:25;;;;;;;1.23;0.77;;;10.90;99.90;;;9.89;99.46;101431.72;5020016;28;20033;-76
2023/05/24 05:01:51;;;;;;;1.08;0.40;;;11.00;99.90;;;9.93;99.57;101422.84;5024109;28;20051;-76
2023/05/24 05:04:17;;;;;;;5.32;0.73;;;11.10;99.90;;;10.00;99.15;101414.69;5029447;28;20567;-76
2023/05/24 05:06:43;;;;;;;2.13;0.40;;;11.10;99.90;;;10.08;98.82;101424.94;5031684;28;20123;-76
2023/05/24 05:09:11;;;;;;;1.73;0.20;;;11.20;99.90;;;10.14;98.37;101418.63;5004206;28;20509;-76
2023/05/24 05:11:38;;;;;;;0.95;0.60;;;11.30;99.90;;;10.24;97.97;101420.06;5019821;28;20086;-75
2023/05/24 05:14:05;;;;;;;0.25;0.25;;;11.30;99.90;;;10.32;97.46;101418.03;5018699;28;20041;-76
2023/05/24 05:16:30;;;;;;;4.60;0.88;;;11.40;99.90;;;10.48;97.61;101422.78;4993949;28;20038;-77
2023/05/24 05:18:57;;;;;;;1.17;0.40;;;11.50;99.90;;;10.57;97.07;101422.44;5022646;28;20056;-77
2023/05/24 05:21:23;;;;;;;0.15;0.15;;;11.60;99.90;;;10.51;96.93;101422.66;4974534;28;20033;-77
2023/05/24 05:23:51;;;;;;;6.63;1.77;;;11.60;99.90;;;10.52;96.63;101427.88;5040654;28;20048;-77
2023/05/24 05:26:21;;;;;;;3.83;0.63;;;11.70;99.90;;;10.67;96.49;101429.13;4988091;28;20037;-77
2023/05/24 05:28:46;;;;;;;6.13;0.40;;;11.80;99.90;;;10.85;95.96;101446.88;4977676;28;20037;-77
2023/05/24 05:31:12;;;;;;;1.25;0.50;;;11.90;99.90;;;11.12;95.78;101448.56;4988601;28;20108;-77
2023/05/24 05:33:38;;;;;;;0.95;0.40;;;12.10;99.90;;;11.45;94.47;101454.34;4990758;28;20453;-76
2023/05/24 05:36:04;;;;;;;;;;;12.10;99.90;;;12.10;92.90;101450.88;4992201;28;20501;-77
2023/05/24 05:38:37;;;;;;;0.38;0.38;;;13.10;99.90;;;14.28;87.30;101465.66;5037100;28;20990;-76
2023/05/24 05:41:03;;;;;;;1.83;0.57;;;14.40;99.90;;;15.76;80.78;101462.19;4996825;28;20044;-77
2023/05/24 05:43:30;;;;;;;0.93;0.50;;;15.10;99.90;;;15.46;78.77;101446.13;4977728;28;20029;-77
2023/05/24 05:45:56;;;;;;;0.82;0.43;;;15.40;99.90;;;15.06;77.60;101455.44;5005133;28;20092;-77
2023/05/24 05:48:24;;;;;;;0.90;0.85;;;15.30;99.90;;;14.39;77.60;101447.41;4983595;28;20039;-78
2023/05/24 05:50:50;;;;;;;5.68;0.82;;;15.00;99.90;;;13.81;78.30;101455.63;4983391;28;20122;-77
2023/05/24 05:53:16;;;;;;;2.60;0.95;;;14.70;99.90;;;13.50;79.90;101457.94;5003256;28;20659;-77
2023/05/24 05:55:42;;;;;;;;;;;14.50;99.90;;;13.50;80.92;101454.44;4996131;28;20047;-76
2023/05/24 05:58:08;;;;;;;2.33;0.50;;;14.40;99.90;;;13.70;80.66;101456.13;5033081;28;19965;-78
2023/05/24 06:00:33;;;;;;;;;;;14.40;99.90;;;13.66;80.58;101457.19;5006198;28;20051;-77
2023/05/24 06:02:59;;;;;;;2.15;0.70;;;14.40;99.90;;;13.48;81.30;101457.16;4952725;28;19913;-77
2023/05/24 06:05:25;;;;;;;1.02;0.55;;;14.40;99.90;;;13.41;81.62;101457.50;4998472;28;20037;-77
2023/05/24 06:07:53;;;;;;;6.47;0.65;;;14.30;99.90;;;13.33;82.03;101460.50;4980955;28;20048;-77
2023/05/24 06:10:19;;;;;;;3.35;0.43;;;14.30;99.90;;;13.26;82.69;101465.19;5003757;28;20041;-77
2023/05/24 06:12:45;;;;;;;3.78;0.63;;;14.20;99.90;;;13.18;82.69;101467.34;4971040;28;20042;-77
2023/05/24 06:15:11;;;;;;;6.28;0.93;;;14.10;99.90;;;13.08;83.07;101474.81;5016362;28;20041;-77
2023/05/24 06:17:37;;;;;;;2.90;0.85;;;14.00;99.90;;;12.88;83.42;101469.56;4971618;28;20119;-77
2023/05/24 06:20:14;;;;;;;1.30;0.70;;;14.00;99.90;;;12.92;83.80;101472.00;4955726;28;20037;-77
2023/05/24 06:22:41;;;;;;;2.85;0.55;;;13.90;99.90;;;12.98;84.18;101484.09;4981566;28;20041;-77
2023/05/24 06:25:08;;;;;;;7.35;0.45;;;13.90;99.90;;;12.96;84.35;101482.44;4958609;28;20593;-77
2023/05/24 06:27:41;;;;;;;1.05;0.88;;;13.90;99.90;;;12.97;84.38;101484.16;4990227;28;20041;-78
2023/05/24 06:30:08;;;;;;;6.18;0.70;;;13.90;99.90;;;12.95;84.54;101484.22;4977050;28;20772;-76
2023/05/24 06:32:34;;;;;;;3.92;1.00;;;13.30;99.90;;;12.86;84.28;101490.78;4990985;28;20097;-77
2023/05/24 06:34:59;;;;;;;1.35;0.47;;;13.90;99.90;;;12.80;85.07;101493.69;5012980;28;20121;-76
2023/05/24 06:37:30;;;;;;;1.42;0.30;;;13.90;99.90;;;12.88;84.69;101496.00;4989472;28;20504;-76
2023/05/24 06:39:56;;;;;;;2.17;0.85;;;13.80;99.90;;;12.84;84.43;101492.63;5016575;28;20128;-77
2023/05/24 06:42:22;;;;;;;2.95;0.60;;;13.80;99.90;;;12.96;84.87;101498.28;5004849;28;20199;-77
2023/05/24 06:44:48;;;;;;;;;;;13.90;99.90;;;13.12;84.65;101499.34;4977447;28;20045;-77
2023/05/24 06:47:13;;;;;;;3.83;0.73;;;14.00;99.90;;;13.23;84.31;101505.00;5005475;28;19912;-77
2023/05/24 06:49:40;;;;;;;1.85;0.32;;;14.10;99.90;;;13.28;83.78;101503.06;4969942;28;20038;-76
2023/05/24 06:52:10;;;;;;;2.40;0.57;;;14.20;99.90;;;13.42;83.63;101512.97;4991453;28;20037;-76
2023/05/24 06:54:36;;;;;;;0.38;0.32;;;14.30;99.90;;;13.41;83.19;101515.69;4984476;28;20039;-76
2023/05/24 06:57:02;;;;;;;1.08;0.98;;;14.40;99.90;;;13.56;82.78;101519.41;5019697;28;20734;-77
2023/05/24 06:59:28;;;;;;;1.27;0.43;;;14.50;99.90;;;13.59;82.53;101517.50;5019037;28;20482;-77
2023/05/24 07:01:56;;;;;;;1.95;0.98;;;14.50;99.90;;;13.58;82.43;101517.56;5004345;28;20133;-76
2023/05/24 07:04:25;;;;;;;4.93;1.27;;;14.50;99.90;;;13.51;81.58;101524.94;4977548;28;20534;-76
2023/05/24 07:06:51;;;;;;;1.48;0.30;;;14.50;99.90;;;13.50;82.02;101526.72;4965678;28;20123;-76
2023/05/24 07:09:20;;;;;;;2.08;0.30;;;14.50;99.90;;;13.46;81.58;101527.78;4977226;28;20029;-77
2023/05/24 07:11:46;;;;;;;1.45;0.43;;;14.60;99.90;;;13.64;81.98;101536.66;4967666;28;20124;-77
2023/05/24 07:14:12;;;;;;;0.55;0.40;;;14.60;99.90;;;13.61;80.96;101539.47;4986817;28;20048;-77
2023/05/24 07:16:38;;;;;;;;;;;14.60;99.90;;;13.62;81.19;101542.97;4979228;28;20025;-77
2023/05/24 07:19:06;;;;;;;3.70;0.30;;;14.60;99.90;;;13.74;81.86;101547.69;4989595;28;20407;-76
2023/05/24 07:21:32;;;;;;;6.57;0.65;;;14.70;99.90;;;13.82;81.95;101547.31;4995039;28;20029;-77
2023/05/24 07:23:58;;;;;;;0.63;0.50;;;14.70;99.90;;;13.75;81.06;101546.75;4980873;28;20047;-78
2023/05/24 07:26:23;;;;;;;0.55;0.40;;;14.70;99.90;;;13.73;80.57;101549.44;4994357;28;20103;-76
2023/05/24 07:28:49;;;;;;;;;;;14.70;99.90;;;13.75;80.67;101547.59;4948768;28;20037;-77
2023/05/24 07:31:15;;;;;;;3.10;0.40;;;14.70;99.90;;;13.70;80.85;101546.97;5000021;28;19921;-76
2023/05/24 07:33:46;;;;;;;;;;;14.70;99.90;;;13.61;80.58;101552.69;4991609;28;20037;-76
2023/05/24 07:36:12;;;;;;;2.20;0.75;;;14.60;99.90;;;13.59;80.82;101551.06;4999296;28;19919;-77
2023/05/24 07:38:38;;;;;;;0.30;0.20;;;14.60;99.90;;;13.53;80.53;101549.53;5017256;28;20029;-77
2023/05/24 07:41:06;;;;;;;1.88;0.60;;;14.60;99.90;;;13.47;80.77;101553.31;4967699;28;20513;-77
2023/05/24 07:43:32;;;;;;;1.42;0.50;;;14.60;99.90;;;13.49;80.56;101553.25;4977176;28;20048;-77
2023/05/24 07:46:03;;;;;;;4.95;0.75;;;14.50;99.90;;;13.54;80.94;101559.16;5007079;28;20449;-77
2023/05/24 07:48:30;;;;;;;6.20;0.90;;;14.60;99.90;;;13.58;80.65;101558.09;4999957;28;20033;-77
2023/05/24 07:50:55;;;;;;;2.88;0.65;;;14.50;99.90;;;13.49;80.64;101559.38;5016296;28;20071;-76
2023/05/24 07:53:22;;;;;;;3.85;1.35;;;14.60;99.90;;;13.57;80.91;101569.63;5005470;28;20033;-77
2023/05/24 07:55:48;;;;;;;0.47;0.15;;;14.60;99.90;;;13.53;80.64;101573.34;5016782;28;20036;-76
2023/05/24 07:58:14;;;;;;;0.95;0.43;;;14.60;99.90;;;13.49;80.31;101571.75;5008271;28;20080;-77
2023/05/24 08:00:41;;;;;;;1.02;0.85;;;14.50;99.90;;;13.46;80.69;101577.22;5028978;28;20032;-76
2023/05/24 08:03:12;;;;;;;7.32;0.88;;;14.50;99.90;;;13.44;80.64;101576.41;5011762;28;20045;-76
2023/05/24 08:05:38;;;;;;;2.28;0.52;;;14.50;99.90;;;13.39;80.55;101587.22;5037486;28;20050;-77
2023/05/24 08:08:03;;;;;;;6.10;0.68;;;14.50;99.90;;;13.42;80.89;101583.56;4981670;28;20132;-76
2023/05/24 08:10:29;;;;;;;3.60;0.50;;;14.50;99.90;;;13.48;80.44;101584.13;4992517;28;20055;-76
2023/05/24 08:12:55;;;;;;;1.55;0.57;;;14.50;99.90;;;13.57;80.82;101596.09;4996805;28;20144;-77
2023/05/24 08:15:24;;;;;;;2.47;0.32;;;14.60;99.90;;;13.64;80.67;101597.53;4944067;28;20079;-76
2023/05/24 08:17:52;;;;;;;1.42;0.50;;;14.60;99.90;;;13.70;81.15;101604.34;4940690;28;20045;-76
2023/05/24 08:20:18;;;;;;;1.35;0.40;;;14.70;99.90;;;13.78;80.30;101598.66;4988326;28;20049;-76
2023/05/24 08:22:44;;;;;;;1.35;0.47;;;14.80;99.90;;;13.85;80.06;101605.41;4954735;28;20044;-77
2023/05/24 08:25:13;;;;;;;6.30;1.25;;;14.80;99.90;;;13.87;78.96;101604.41;4968978;28;20033;-77
2023/05/24 08:27:39;;;;;;;0.50;0.20;;;14.80;99.90;;;13.90;78.81;101612.19;4989764;28;20065;-76
2023/05/24 08:30:09;;;;;;;0.75;0.43;;;14.90;99.90;;;13.97;78.54;101610.13;4990463;28;20506;-77
2023/05/24 08:32:35;;;;;;;1.15;0.40;;;14.90;99.90;;;14.01;78.48;101611.69;4976582;28;20047;-76
2023/05/24 08:35:01;;;;;;;0.40;0.40;;;15.00;99.90;;;13.98;78.43;101611.84;4978585;28;20032;-77
2023/05/24 08:37:28;;;;;;;0.40;0.30;;;14.90;99.90;;;14.04;78.63;101623.94;4998747;28;20040;-77
2023/05/24 08:39:56;;;;;;;4.15;0.68;;;15.00;99.90;;;14.12;79.40;101621.78;4981949;28;21059;-76
2023/05/24 08:42:24;;;;;;;1.80;0.68;;;15.10;99.90;;;14.16;78.66;101623.38;5003406;28;20060;-77
2023/05/24 08:45:13;;;;;;;2.80;0.70;;;15.10;99.90;;;14.33;78.48;101619.91;5011707;28;20041;-77
2023/05/24 08:47:42;;;;;;;5.85;0.65;;;15.30;99.90;;;14.51;78.20;101618.16;5001715;28;20040;-77
2023/05/24 08:50:11;;;;;;;6.75;1.23;;;15.40;99.90;;;14.69;77.89;101621.75;4984206;28;20033;-77
2023/05/24 08:52:38;;;;;;;0.70;0.30;;;15.50;99.90;;;14.77;76.99;101628.38;4980092;28;20040;-76
2023/05/24 08:55:05;;;;;;;2.35;0.95;;;15.60;99.90;;;14.94;76.74;101626.66;4992660;28;20616;-76
2023/05/24 08:57:36;;;;;;;1.42;0.47;;;15.80;99.90;;;15.07;76.23;101632.19;4981506;28;20122;-76
2023/05/24 09:00:04;;;;;;;2.42;0.57;;;15.90;99.90;;;15.15;75.26;101632.69;4965659;28;20029;-76
2023/05/24 09:02:31;;;;;;;1.85;0.57;;;16.00;99.90;;;15.36;75.21;101636.88;4969982;28;20119;-77
2023/05/24 09:05:01;;;;;;;2.20;0.60;;;16.10;99.90;;;15.55;74.83;101633.22;4958829;28;20047;-77
2023/05/24 09:07:31;;;;;;;1.55;0.63;;;16.30;99.90;;;15.70;74.07;101648.38;5002998;28;20041;-77
2023/05/24 09:10:07;;;;;;;3.30;0.73;;;16.40;99.90;;;15.84;73.48;101644.13;5013345;28;20119;-77
2023/05/24 09:12:35;;;;;;;0.20;0.20;;;16.50;99.90;;;15.84;72.65;101646.78;4968398;28;20320;-76
2023/05/24 09:15:02;;;;;;;2.33;0.68;;;16.70;99.90;;;16.07;73.40;101650.84;5013444;28;20044;-77
2023/05/24 09:17:39;;;;;;;2.35;0.50;;;16.80;99.90;;;16.20;73.17;101655.41;4974148;28;20037;-77
2023/05/24 09:20:09;;;;;;;3.00;0.35;;;16.90;99.90;;;16.27;72.74;101655.91;5019674;28;20099;-75
2023/05/24 09:22:39;;;;;;;1.40;0.93;;;17.00;99.90;;;16.26;72.25;101656.00;4981461;28;20028;-77
2023/05/24 09:25:06;;;;;;;3.35;1.48;;;17.00;99.90;;;16.27;71.61;101660.38;4997755;28;20163;-76
2023/05/24 09:27:39;;;;;;;2.28;0.43;;;17.00;99.90;;;16.20;71.11;101659.88;4989648;28;20112;-76
2023/05/24 09:30:11;;;;;;;3.80;0.77;;;17.00;99.90;;;16.14;72.11;101657.53;5005015;28;20037;-75
2023/05/24 09:33:04;;;;;;;1.02;0.68;;;17.00;99.90;;;16.20;72.11;101662.53;5000496;28;20034;-77
2023/05/24 09:35:30;;;;;;;2.15;0.57;;;17.00;99.90;;;16.21;72.39;101666.88;4989119;28;20033;-75
2023/05/24 09:38:00;;;;;;;2.15;0.57;;;17.00;99.90;;;16.04;71.86;101665.16;5018564;28;20052;-76
2023/05/24 09:40:30;;;;;;;4.10;0.60;;;17.00;99.90;;;16.13;71.72;101669.97;5026373;28;20041;-77
2023/05/24 09:43:11;;;;;;;2.38;0.50;;;16.90;99.90;;;16.01;70.88;101664.47;5020887;28;20041;-77
2023/05/24 09:45:48;;;;;;;3.90;0.85;;;16.90;99.90;;;15.95;71.30;101665.66;5019457;28;20021;-77
2023/05/24 09:48:16;;;;;;;;;;;16.90;99.90;;;15.89;70.86;101672.16;5015531;28;20037;-76
2023/05/24 09:51:06;;;;;;;0.88;0.40;;;17.00;99.90;;;16.10;71.09;101671.94;4988364;28;19918;-77
2023/05/24 09:53:35;;;;;;;2.45;0.52;;;16.90;99.90;;;15.97;70.54;101675.25;4998375;28;20032;-77
2023/05/24 09:56:12;;;;;;;0.47;0.45;;;16.80;99.90;;;15.85;70.51;101675.06;5006879;28;20029;-77
2023/05/24 09:58:41;;;;;;;0.88;0.55;;;16.70;99.90;;;15.77;69.72;101672.81;5009826;28;20067;-77
2023/05/24 10:01:09;;;;;;;2.15;0.80;;;16.70;99.90;;;15.86;70.22;101679.44;5030066;28;20549;-77
2023/05/24 10:03:53;;;;;;;4.68;0.77;;;16.70;99.90;;;15.89;70.15;101677.47;5009437;28;20606;-76
2023/05/24 10:06:22;;;;;;;1.52;0.43;;;16.80;99.90;;;15.93;70.24;101686.13;5039625;28;20029;-76
2023/05/24 10:08:49;;;;;;;2.05;0.50;;;16.80;99.90;;;15.95;70.63;101679.78;4963267;28;20120;-77
2023/05/24 10:11:18;;;;;;;1.83;0.60;;;16.80;99.90;;;15.97;70.31;101679.72;4999234;28;20068;-75
2023/05/24 10:13:44;;;;;;;2.20;0.35;;;16.80;99.90;;;16.02;70.05;101682.97;5008949;28;20126;-77
2023/05/24 10:16:12;;;;;;;3.13;0.60;;;16.80;99.90;;;15.98;69.89;101682.28;5009994;28;20034;-76
2023/05/24 10:18:47;;;;;;;6.03;0.55;;;16.90;99.90;;;16.03;69.81;101691.81;4966839;28;20041;-77
2023/05/24 10:21:13;;;;;;;1.58;0.45;;;16.80;99.90;;;15.91;68.89;101686.19;4994509;28;20131;-76
2023/05/24 10:23:43;;;;;;;0.52;0.43;;;16.80;99.90;;;15.93;69.53;101683.47;4984122;28;20603;-78